Terminal Aerodrome Forecast
Issued by NWS Twin Cities, MN

Home | Current Version | Previous Version | Graphics & Text | Print | Product List | Glossary On
Versions: 1 2 3 4 5 6 7 8 9 10 11 12
000
FTUS43 KMPX 141100
TAFSTC
TAF
KSTC 141122Z 1412/1512 23008KT P6SM SCT090
     FM141500 28013G19KT P6SM SCT050 BKN200
     FM150000 30003KT P6SM BKN150=

USA.gov is the U.S. government's official web portal to all federal, state and local government web resources and services.